sensor_id;sensor_type;location;lat;lon;timestamp;pressure;altitude;pressure_sealevel;temperature;humidity
55010;BME280;40903;51.638;7.528;2023-04-05T00:00:48;101877.72;;;2.84;72.62
55010;BME280;40903;51.638;7.528;2023-04-05T00:03:13;101881.03;;;2.79;73.15
55010;BME280;40903;51.638;7.528;2023-04-05T00:05:38;101873.81;;;2.73;73.90
55010;BME280;40903;51.638;7.528;2023-04-05T00:08:04;101870.09;;;2.68;74.07
55010;BME280;40903;51.638;7.528;2023-04-05T00:10:32;101873.59;;;2.62;74.58
55010;BME280;40903;51.638;7.528;2023-04-05T00:12:57;101872.81;;;2.55;75.28
55010;BME280;40903;51.638;7.528;2023-04-05T00:15:22;101867.44;;;2.48;75.88
55010;BME280;40903;51.638;7.528;2023-04-05T00:17:48;101864.53;;;2.43;76.34
55010;BME280;40903;51.638;7.528;2023-04-05T00:20:13;101870.75;;;2.37;76.60
55010;BME280;40903;51.638;7.528;2023-04-05T00:22:39;101863.72;;;2.30;76.83
55010;BME280;40903;51.638;7.528;2023-04-05T00:25:07;101858.97;;;2.25;77.00
55010;BME280;40903;51.638;7.528;2023-04-05T00:27:32;101867.69;;;2.21;77.25
55010;BME280;40903;51.638;7.528;2023-04-05T00:29:57;101866.63;;;2.15;77.83
55010;BME280;40903;51.638;7.528;2023-04-05T00:32:23;101862.06;;;2.09;78.17
55010;BME280;40903;51.638;7.528;2023-04-05T00:34:48;101853.00;;;2.04;78.57
55010;BME280;40903;51.638;7.528;2023-04-05T00:37:14;101858.38;;;1.97;79.06
55010;BME280;40903;51.638;7.528;2023-04-05T00:39:39;101866.00;;;1.94;79.02
55010;BME280;40903;51.638;7.528;2023-04-05T00:42:04;101853.19;;;1.89;78.98
55010;BME280;40903;51.638;7.528;2023-04-05T00:44:30;101855.44;;;1.86;79.11
55010;BME280;40903;51.638;7.528;2023-04-05T00:47:02;101848.22;;;1.80;79.59
55010;BME280;40903;51.638;7.528;2023-04-05T00:49:28;101849.03;;;1.74;80.09
55010;BME280;40903;51.638;7.528;2023-04-05T00:51:55;101855.84;;;1.70;80.37
55010;BME280;40903;51.638;7.528;2023-04-05T00:54:21;101851.28;;;1.64;80.79
55010;BME280;40903;51.638;7.528;2023-04-05T00:56:46;101854.41;;;1.61;81.01
55010;BME280;40903;51.638;7.528;2023-04-05T00:59:11;101850.66;;;1.56;81.24
55010;BME280;40903;51.638;7.528;2023-04-05T01:01:37;101852.91;;;1.52;81.53
55010;BME280;40903;51.638;7.528;2023-04-05T01:04:04;101851.88;;;1.47;81.88
55010;BME280;40903;51.638;7.528;2023-04-05T01:11:51;101850.81;;;1.35;83.29
55010;BME280;40903;51.638;7.528;2023-04-05T01:14:19;101851.44;;;1.30;83.77
55010;BME280;40903;51.638;7.528;2023-04-05T01:16:45;101848.50;;;1.25;84.23
55010;BME280;40903;51.638;7.528;2023-04-05T01:19:14;101845.19;;;1.23;84.64
55010;BME280;40903;51.638;7.528;2023-04-05T01:21:54;101842.94;;;1.20;84.63
55010;BME280;40903;51.638;7.528;2023-04-05T01:24:43;101835.47;;;1.16;84.96
55010;BME280;40903;51.638;7.528;2023-04-05T01:30:17;101832.97;;;1.08;85.16
55010;BME280;40903;51.638;7.528;2023-04-05T01:32:45;101835.84;;;1.06;85.48
55010;BME280;40903;51.638;7.528;2023-04-05T01:35:23;101829.41;;;1.01;85.62
55010;BME280;40903;51.638;7.528;2023-04-05T01:37:53;101831.66;;;0.97;85.83
55010;BME280;40903;51.638;7.528;2023-04-05T01:40:19;101834.97;;;0.93;86.33
55010;BME280;40903;51.638;7.528;2023-04-05T01:42:45;101821.13;;;0.89;86.68
55010;BME280;40903;51.638;7.528;2023-04-05T01:45:10;101826.91;;;0.86;87.17
55010;BME280;40903;51.638;7.528;2023-04-05T01:47:36;101823.38;;;0.86;87.27
55010;BME280;40903;51.638;7.528;2023-04-05T01:50:01;101821.94;;;0.83;87.56
55010;BME280;40903;51.638;7.528;2023-04-05T01:52:26;101825.84;;;0.81;87.83
55010;BME280;40903;51.638;7.528;2023-04-05T01:54:51;101815.50;;;0.78;88.13
55010;BME280;40903;51.638;7.528;2023-04-05T01:57:17;101816.91;;;0.74;88.28
55010;BME280;40903;51.638;7.528;2023-04-05T01:59:42;101809.25;;;0.71;88.67
55010;BME280;40903;51.638;7.528;2023-04-05T02:02:07;101807.81;;;0.68;89.22
55010;BME280;40903;51.638;7.528;2023-04-05T02:04:32;101807.16;;;0.66;89.39
55010;BME280;40903;51.638;7.528;2023-04-05T02:06:58;101803.06;;;0.64;89.61
55010;BME280;40903;51.638;7.528;2023-04-05T02:09:23;101806.94;;;0.61;89.91
55010;BME280;40903;51.638;7.528;2023-04-05T02:11:48;101803.81;;;0.58;89.89
55010;BME280;40903;51.638;7.528;2023-04-05T02:14:13;101815.19;;;0.53;90.23
55010;BME280;40903;51.638;7.528;2023-04-05T02:16:39;101811.84;;;0.51;90.36
55010;BME280;40903;51.638;7.528;2023-04-05T02:19:04;101816.59;;;0.49;90.59
55010;BME280;40903;51.638;7.528;2023-04-05T02:21:29;101819.66;;;0.46;90.87
55010;BME280;40903;51.638;7.528;2023-04-05T02:23:55;101812.03;;;0.43;91.25
55010;BME280;40903;51.638;7.528;2023-04-05T02:26:21;101821.09;;;0.42;91.70
55010;BME280;40903;51.638;7.528;2023-04-05T02:28:46;101811.59;;;0.40;92.05
55010;BME280;40903;51.638;7.528;2023-04-05T02:31:12;101813.81;;;0.36;92.41
55010;BME280;40903;51.638;7.528;2023-04-05T02:33:38;101814.22;;;0.33;92.83
55010;BME280;40903;51.638;7.528;2023-04-05T02:36:04;101807.41;;;0.31;93.30
55010;BME280;40903;51.638;7.528;2023-04-05T02:38:31;101812.34;;;0.27;93.74
55010;BME280;40903;51.638;7.528;2023-04-05T02:40:56;101810.88;;;0.25;94.13
55010;BME280;40903;51.638;7.528;2023-04-05T02:43:21;101812.75;;;0.24;94.39
55010;BME280;40903;51.638;7.528;2023-04-05T02:45:46;101814.75;;;0.22;94.71
55010;BME280;40903;51.638;7.528;2023-04-05T02:48:12;101807.75;;;0.21;95.02
55010;BME280;40903;51.638;7.528;2023-04-05T02:50:37;101811.44;;;0.20;95.08
55010;BME280;40903;51.638;7.528;2023-04-05T02:53:02;101805.69;;;0.17;95.09
55010;BME280;40903;51.638;7.528;2023-04-05T02:55:28;101808.53;;;0.15;95.16
55010;BME280;40903;51.638;7.528;2023-04-05T02:57:57;101807.06;;;0.13;95.40
55010;BME280;40903;51.638;7.528;2023-04-05T03:00:24;101803.13;;;0.09;95.39
55010;BME280;40903;51.638;7.528;2023-04-05T03:02:49;101797.94;;;0.07;95.34
55010;BME280;40903;51.638;7.528;2023-04-05T03:05:15;101802.69;;;0.05;95.42
55010;BME280;40903;51.638;7.528;2023-04-05T03:07:42;101803.09;;;0.02;95.21
55010;BME280;40903;51.638;7.528;2023-04-05T03:10:10;101792.75;;;-0.01;95.39
55010;BME280;40903;51.638;7.528;2023-04-05T03:12:37;101797.50;;;-0.03;95.53
55010;BME280;40903;51.638;7.528;2023-04-05T03:15:03;101792.53;;;-0.05;95.52
55010;BME280;40903;51.638;7.528;2023-04-05T03:17:28;101788.56;;;-0.09;95.88
55010;BME280;40903;51.638;7.528;2023-04-05T03:19:53;101784.22;;;-0.10;96.17
55010;BME280;40903;51.638;7.528;2023-04-05T03:22:18;101792.25;;;-0.10;96.29
55010;BME280;40903;51.638;7.528;2023-04-05T03:24:44;101792.47;;;-0.12;96.34
55010;BME280;40903;51.638;7.528;2023-04-05T03:27:10;101798.84;;;-0.13;96.22
55010;BME280;40903;51.638;7.528;2023-04-05T03:29:37;101788.50;;;-0.16;96.34
55010;BME280;40903;51.638;7.528;2023-04-05T03:32:02;101791.41;;;-0.17;96.29
55010;BME280;40903;51.638;7.528;2023-04-05T03:34:27;101803.31;;;-0.20;96.51
55010;BME280;40903;51.638;7.528;2023-04-05T03:36:53;101800.84;;;-0.21;96.68
55010;BME280;40903;51.638;7.528;2023-04-05T03:39:18;101797.50;;;-0.23;96.80
55010;BME280;40903;51.638;7.528;2023-04-05T03:41:44;101798.13;;;-0.28;96.95
55010;BME280;40903;51.638;7.528;2023-04-05T03:44:09;101793.78;;;-0.29;97.13
55010;BME280;40903;51.638;7.528;2023-04-05T03:46:34;101798.47;;;-0.31;97.02
55010;BME280;40903;51.638;7.528;2023-04-05T03:49:01;101796.00;;;-0.32;97.15
55010;BME280;40903;51.638;7.528;2023-04-05T03:51:27;101798.25;;;-0.36;97.27
55010;BME280;40903;51.638;7.528;2023-04-05T03:53:53;101799.25;;;-0.37;97.31
55010;BME280;40903;51.638;7.528;2023-04-05T03:56:18;101794.28;;;-0.40;97.52
55010;BME280;40903;51.638;7.528;2023-04-05T03:58:44;101791.63;;;-0.40;97.68
55010;BME280;40903;51.638;7.528;2023-04-05T04:01:10;101788.31;;;-0.42;97.83
55010;BME280;40903;51.638;7.528;2023-04-05T04:03:36;101785.19;;;-0.45;98.01
55010;BME280;40903;51.638;7.528;2023-04-05T04:06:02;101780.00;;;-0.47;98.09
55010;BME280;40903;51.638;7.528;2023-04-05T04:08:27;101782.03;;;-0.49;98.26
55010;BME280;40903;51.638;7.528;2023-04-05T04:10:53;101778.75;;;-0.51;97.92
55010;BME280;40903;51.638;7.528;2023-04-05T04:13:18;101786.31;;;-0.54;97.78
55010;BME280;40903;51.638;7.528;2023-04-05T04:15:44;101780.31;;;-0.56;97.45
55010;BME280;40903;51.638;7.528;2023-04-05T04:18:09;101780.72;;;-0.59;97.39
55010;BME280;40903;51.638;7.528;2023-04-05T04:20:34;101775.38;;;-0.59;97.51
55010;BME280;40903;51.638;7.528;2023-04-05T04:22:59;101777.41;;;-0.61;97.63
55010;BME280;40903;51.638;7.528;2023-04-05T04:25:25;101780.25;;;-0.63;97.49
55010;BME280;40903;51.638;7.528;2023-04-05T04:27:54;101781.50;;;-0.65;97.35
55010;BME280;40903;51.638;7.528;2023-04-05T04:30:20;101784.53;;;-0.68;97.33
55010;BME280;40903;51.638;7.528;2023-04-05T04:32:46;101773.81;;;-0.68;97.70
55010;BME280;40903;51.638;7.528;2023-04-05T04:35:23;101774.84;;;-0.69;97.65
55010;BME280;40903;51.638;7.528;2023-04-05T04:38:01;101782.25;;;-0.71;97.87
55010;BME280;40903;51.638;7.528;2023-04-05T04:40:30;101782.47;;;-0.73;98.02
55010;BME280;40903;51.638;7.528;2023-04-05T04:43:03;101780.97;;;-0.75;98.27
55010;BME280;40903;51.638;7.528;2023-04-05T04:45:28;101777.47;;;-0.76;98.33
55010;BME280;40903;51.638;7.528;2023-04-05T04:47:58;101780.13;;;-0.76;98.42
55010;BME280;40903;51.638;7.528;2023-04-05T04:50:25;101785.31;;;-0.74;98.33
55010;BME280;40903;51.638;7.528;2023-04-05T04:52:51;101777.66;;;-0.77;97.86
55010;BME280;40903;51.638;7.528;2023-04-05T04:55:16;101780.53;;;-0.79;97.74
55010;BME280;40903;51.638;7.528;2023-04-05T04:57:41;101774.75;;;-0.82;97.62
55010;BME280;40903;51.638;7.528;2023-04-05T05:00:07;101774.06;;;-0.84;97.65
55010;BME280;40903;51.638;7.528;2023-04-05T05:02:41;101772.63;;;-0.87;97.78
55010;BME280;40903;51.638;7.528;2023-04-05T05:05:08;101773.66;;;-0.88;97.87
55010;BME280;40903;51.638;7.528;2023-04-05T05:07:33;101772.00;;;-0.89;98.00
55010;BME280;40903;51.638;7.528;2023-04-05T05:09:58;101768.66;;;-0.91;97.92
55010;BME280;40903;51.638;7.528;2023-04-05T05:12:24;101772.16;;;-0.90;98.28
55010;BME280;40903;51.638;7.528;2023-04-05T05:14:50;101772.16;;;-0.90;98.19
55010;BME280;40903;51.638;7.528;2023-04-05T05:17:15;101771.16;;;-0.89;98.34
55010;BME280;40903;51.638;7.528;2023-04-05T05:19:41;101775.69;;;-0.90;98.19
55010;BME280;40903;51.638;7.528;2023-04-05T05:22:06;101777.53;;;-0.90;98.32
55010;BME280;40903;51.638;7.528;2023-04-05T05:24:31;101778.38;;;-0.90;98.39
55010;BME280;40903;51.638;7.528;2023-04-05T05:26:56;101781.69;;;-0.88;98.35
55010;BME280;40903;51.638;7.528;2023-04-05T05:29:22;101786.81;;;-0.86;98.32
55010;BME280;40903;51.638;7.528;2023-04-05T05:31:47;101785.00;;;-0.86;98.33
55010;BME280;40903;51.638;7.528;2023-04-05T05:34:12;101782.09;;;-0.84;98.61
55010;BME280;40903;51.638;7.528;2023-04-05T05:36:37;101784.59;;;-0.83;98.80
55010;BME280;40903;51.638;7.528;2023-04-05T05:39:03;101778.06;;;-0.80;98.98
55010;BME280;40903;51.638;7.528;2023-04-05T05:41:29;101782.00;;;-0.76;99.04
55010;BME280;40903;51.638;7.528;2023-04-05T05:43:55;101778.75;;;-0.72;99.09
55010;BME280;40903;51.638;7.528;2023-04-05T05:46:20;101781.03;;;-0.69;99.20
55010;BME280;40903;51.638;7.528;2023-04-05T05:48:46;101780.47;;;-0.64;99.26
55010;BME280;40903;51.638;7.528;2023-04-05T05:51:11;101781.75;;;-0.60;99.61
55010;BME280;40903;51.638;7.528;2023-04-05T05:53:37;101791.88;;;-0.56;99.83
55010;BME280;40903;51.638;7.528;2023-04-05T05:56:02;101787.63;;;-0.50;100.00
55010;BME280;40903;51.638;7.528;2023-04-05T05:58:28;101793.22;;;-0.45;100.00
55010;BME280;40903;51.638;7.528;2023-04-05T06:00:53;101786.25;;;-0.40;100.00
55010;BME280;40903;51.638;7.528;2023-04-05T06:03:20;101784.44;;;-0.33;100.00
55010;BME280;40903;51.638;7.528;2023-04-05T06:05:55;101786.38;;;-0.27;100.00
55010;BME280;40903;51.638;7.528;2023-04-05T06:08:21;101773.66;;;-0.18;100.00
55010;BME280;40903;51.638;7.528;2023-04-05T06:10:47;101780.50;;;-0.09;100.00
55010;BME280;40903;51.638;7.528;2023-04-05T06:13:12;101775.00;;;-0.02;100.00
55010;BME280;40903;51.638;7.528;2023-04-05T06:15:37;101776.31;;;0.09;100.00
55010;BME280;40903;51.638;7.528;2023-04-05T06:18:03;101766.06;;;0.19;100.00
55010;BME280;40903;51.638;7.528;2023-04-05T06:20:28;101769.03;;;0.30;100.00
55010;BME280;40903;51.638;7.528;2023-04-05T06:22:53;101772.81;;;0.42;100.00
55010;BME280;40903;51.638;7.528;2023-04-05T06:25:18;101775.56;;;0.55;100.00
55010;BME280;40903;51.638;7.528;2023-04-05T06:27:44;101773.13;;;0.67;100.00
55010;BME280;40903;51.638;7.528;2023-04-05T06:30:09;101773.63;;;0.83;100.00
55010;BME280;40903;51.638;7.528;2023-04-05T06:32:35;101770.94;;;0.96;100.00
55010;BME280;40903;51.638;7.528;2023-04-05T06:35:00;101772.25;;;1.13;98.98
55010;BME280;40903;51.638;7.528;2023-04-05T06:37:28;101770.22;;;1.28;97.91
55010;BME280;40903;51.638;7.528;2023-04-05T06:39:53;101771.47;;;1.45;97.34
55010;BME280;40903;51.638;7.528;2023-04-05T06:42:18;101768.38;;;1.61;96.06
55010;BME280;40903;51.638;7.528;2023-04-05T06:44:43;101757.00;;;1.79;94.84
55010;BME280;40903;51.638;7.528;2023-04-05T06:47:08;101761.13;;;1.94;94.06
55010;BME280;40903;51.638;7.528;2023-04-05T06:49:34;101767.72;;;2.11;92.64
55010;BME280;40903;51.638;7.528;2023-04-05T06:51:59;101769.75;;;2.28;90.78
55010;BME280;40903;51.638;7.528;2023-04-05T06:54:26;101766.63;;;2.44;89.54
55010;BME280;40903;51.638;7.528;2023-04-05T06:56:52;101765.91;;;2.62;89.48
55010;BME280;40903;51.638;7.528;2023-04-05T06:59:17;101764.41;;;2.79;88.20
55010;BME280;40903;51.638;7.528;2023-04-05T07:01:42;101763.69;;;2.96;87.13
55010;BME280;40903;51.638;7.528;2023-04-05T07:04:08;101763.19;;;3.12;85.91
55010;BME280;40903;51.638;7.528;2023-04-05T07:06:34;101762.66;;;3.28;85.38
55010;BME280;40903;51.638;7.528;2023-04-05T07:09:03;101766.88;;;3.49;85.22
55010;BME280;40903;51.638;7.528;2023-04-05T07:11:28;101761.56;;;3.67;83.86
55010;BME280;40903;51.638;7.528;2023-04-05T07:13:56;101761.84;;;3.83;80.47
55010;BME280;40903;51.638;7.528;2023-04-05T07:16:22;101766.81;;;4.04;80.37
55010;BME280;40903;51.638;7.528;2023-04-05T07:18:48;101767.75;;;4.16;74.49
55010;BME280;40903;51.638;7.528;2023-04-05T07:21:14;101768.00;;;4.32;74.38
55010;BME280;40903;51.638;7.528;2023-04-05T07:23:39;101760.97;;;4.49;72.20
55010;BME280;40903;51.638;7.528;2023-04-05T07:26:05;101752.84;;;4.67;72.88
55010;BME280;40903;51.638;7.528;2023-04-05T07:28:31;101754.72;;;4.85;72.54
55010;BME280;40903;51.638;7.528;2023-04-05T07:30:57;101756.09;;;5.05;72.69
55010;BME280;40903;51.638;7.528;2023-04-05T07:33:22;101747.69;;;5.25;72.24
55010;BME280;40903;51.638;7.528;2023-04-05T07:35:51;101754.09;;;5.42;71.01
55010;BME280;40903;51.638;7.528;2023-04-05T07:38:17;101748.34;;;5.50;69.62
55010;BME280;40903;51.638;7.528;2023-04-05T07:40:42;101753.66;;;5.68;69.93
55010;BME280;40903;51.638;7.528;2023-04-05T07:43:07;101745.03;;;5.88;70.08
55010;BME280;40903;51.638;7.528;2023-04-05T07:45:33;101755.28;;;6.09;70.06
55010;BME280;40903;51.638;7.528;2023-04-05T07:47:58;101750.78;;;6.26;68.13
55010;BME280;40903;51.638;7.528;2023-04-05T07:50:24;101743.34;;;6.45;68.55
55010;BME280;40903;51.638;7.528;2023-04-05T07:52:49;101747.19;;;6.60;66.46
55010;BME280;40903;51.638;7.528;2023-04-05T07:55:15;101747.28;;;6.77;64.75
55010;BME280;40903;51.638;7.528;2023-04-05T07:57:41;101745.44;;;6.94;64.53
55010;BME280;40903;51.638;7.528;2023-04-05T08:00:06;101759.94;;;6.99;61.19
55010;BME280;40903;51.638;7.528;2023-04-05T08:02:37;101756.59;;;7.09;61.95
55010;BME280;40903;51.638;7.528;2023-04-05T08:05:03;101756.16;;;7.28;62.75
55010;BME280;40903;51.638;7.528;2023-04-05T08:07:28;101762.09;;;7.42;61.96
55010;BME280;40903;51.638;7.528;2023-04-05T08:09:53;101763.78;;;7.59;60.59
55010;BME280;40903;51.638;7.528;2023-04-05T08:12:21;101762.72;;;7.76;60.00
55010;BME280;40903;51.638;7.528;2023-04-05T08:14:47;101760.00;;;7.93;57.58
55010;BME280;40903;51.638;7.528;2023-04-05T08:17:12;101754.56;;;8.09;59.45
55010;BME280;40903;51.638;7.528;2023-04-05T08:19:38;101765.69;;;8.24;57.47
55010;BME280;40903;51.638;7.528;2023-04-05T08:22:04;101764.50;;;8.37;57.54
55010;BME280;40903;51.638;7.528;2023-04-05T08:24:29;101761.75;;;8.53;55.66
55010;BME280;40903;51.638;7.528;2023-04-05T08:26:54;101751.88;;;8.69;54.79
55010;BME280;40903;51.638;7.528;2023-04-05T08:29:21;101745.56;;;8.85;55.46
55010;BME280;40903;51.638;7.528;2023-04-05T08:31:46;101736.00;;;9.04;54.27
55010;BME280;40903;51.638;7.528;2023-04-05T08:34:12;101741.41;;;9.25;53.54
55010;BME280;40903;51.638;7.528;2023-04-05T08:36:37;101751.22;;;9.26;49.19
55010;BME280;40903;51.638;7.528;2023-04-05T08:39:02;101754.53;;;9.33;48.30
55010;BME280;40903;51.638;7.528;2023-04-05T08:41:39;101749.72;;;9.40;48.57
55010;BME280;40903;51.638;7.528;2023-04-05T08:44:05;101763.69;;;9.49;47.44
55010;BME280;40903;51.638;7.528;2023-04-05T08:46:33;101770.03;;;9.54;46.22
55010;BME280;40903;51.638;7.528;2023-04-05T08:48:59;101759.41;;;9.58;46.16
55010;BME280;40903;51.638;7.528;2023-04-05T08:51:28;101753.19;;;9.62;47.14
55010;BME280;40903;51.638;7.528;2023-04-05T08:53:53;101752.00;;;9.79;47.40
55010;BME280;40903;51.638;7.528;2023-04-05T08:56:26;101751.84;;;9.96;45.70
55010;BME280;40903;51.638;7.528;2023-04-05T09:01:23;101754.81;;;10.26;45.86
55010;BME280;40903;51.638;7.528;2023-04-05T09:03:51;101756.03;;;10.45;44.48
55010;BME280;40903;51.638;7.528;2023-04-05T09:06:17;101746.63;;;10.72;47.79
55010;BME280;40903;51.638;7.528;2023-04-05T09:08:44;101753.50;;;10.85;44.29
55010;BME280;40903;51.638;7.528;2023-04-05T09:11:10;101759.28;;;10.98;43.27
55010;BME280;40903;51.638;7.528;2023-04-05T09:13:36;101758.47;;;11.03;41.40
55010;BME280;40903;51.638;7.528;2023-04-05T09:16:01;101761.28;;;11.33;44.54
55010;BME280;40903;51.638;7.528;2023-04-05T09:18:26;101760.78;;;11.46;42.57
55010;BME280;40903;51.638;7.528;2023-04-05T09:21:01;101758.38;;;11.64;41.04
55010;BME280;40903;51.638;7.528;2023-04-05T09:23:27;101749.34;;;11.78;42.58
55010;BME280;40903;51.638;7.528;2023-04-05T09:25:52;101766.81;;;11.63;40.86
55010;BME280;40903;51.638;7.528;2023-04-05T09:28:18;101760.28;;;11.73;39.16
55010;BME280;40903;51.638;7.528;2023-04-05T09:30:46;101759.47;;;11.93;37.97
55010;BME280;40903;51.638;7.528;2023-04-05T09:33:14;101754.81;;;12.13;37.00
55010;BME280;40903;51.638;7.528;2023-04-05T09:35:39;101768.19;;;12.15;36.47
55010;BME280;40903;51.638;7.528;2023-04-05T09:38:05;101750.97;;;12.29;38.18
55010;BME280;40903;51.638;7.528;2023-04-05T09:40:46;101757.25;;;12.35;36.40
55010;BME280;40903;51.638;7.528;2023-04-05T09:43:12;101758.84;;;12.51;36.99
55010;BME280;40903;51.638;7.528;2023-04-05T09:45:41;101765.19;;;12.41;35.67
55010;BME280;40903;51.638;7.528;2023-04-05T09:48:07;101765.47;;;12.35;34.97
55010;BME280;40903;51.638;7.528;2023-04-05T09:50:33;101761.34;;;12.42;33.72
55010;BME280;40903;51.638;7.528;2023-04-05T09:53:08;101763.19;;;12.57;35.93
55010;BME280;40903;51.638;7.528;2023-04-05T09:55:35;101760.72;;;12.65;34.87
55010;BME280;40903;51.638;7.528;2023-04-05T09:58:00;101760.13;;;12.78;31.47
55010;BME280;40903;51.638;7.528;2023-04-05T10:00:27;101754.34;;;12.95;32.31
55010;BME280;40903;51.638;7.528;2023-04-05T10:02:54;101749.34;;;13.12;33.20
55010;BME280;40903;51.638;7.528;2023-04-05T10:05:22;101755.41;;;12.89;31.94
55010;BME280;40903;51.638;7.528;2023-04-05T10:07:49;101746.91;;;13.05;32.84
55010;BME280;40903;51.638;7.528;2023-04-05T10:10:15;101739.63;;;13.29;35.37
55010;BME280;40903;51.638;7.528;2023-04-05T10:12:40;101747.31;;;13.27;31.93
55010;BME280;40903;51.638;7.528;2023-04-05T10:15:06;101743.16;;;13.40;31.73
55010;BME280;40903;51.638;7.528;2023-04-05T10:17:38;101737.56;;;13.55;32.60
55010;BME280;40903;51.638;7.528;2023-04-05T10:22:58;101740.00;;;13.56;32.16
55010;BME280;40903;51.638;7.528;2023-04-05T10:25:24;101731.84;;;13.84;34.56
55010;BME280;40903;51.638;7.528;2023-04-05T10:27:54;101735.38;;;13.90;31.28
55010;BME280;40903;51.638;7.528;2023-04-05T10:30:23;101722.81;;;14.12;32.19
55010;BME280;40903;51.638;7.528;2023-04-05T10:38:20;101724.25;;;14.05;31.15
55010;BME280;40903;51.638;7.528;2023-04-05T10:40:45;101728.00;;;13.85;29.56
55010;BME280;40903;51.638;7.528;2023-04-05T10:43:14;101719.25;;;13.78;31.36
55010;BME280;40903;51.638;7.528;2023-04-05T10:45:41;101715.63;;;13.88;31.72
55010;BME280;40903;51.638;7.528;2023-04-05T10:48:11;101716.06;;;14.00;31.70
55010;BME280;40903;51.638;7.528;2023-04-05T10:50:41;101716.03;;;14.05;30.10
55010;BME280;40903;51.638;7.528;2023-04-05T10:53:08;101709.38;;;14.11;30.92
55010;BME280;40903;51.638;7.528;2023-04-05T10:55:35;101709.91;;;14.13;32.49
55010;BME280;40903;51.638;7.528;2023-04-05T10:58:00;101704.56;;;14.26;32.57
55010;BME280;40903;51.638;7.528;2023-04-05T11:00:26;101692.56;;;14.46;32.79
55010;BME280;40903;51.638;7.528;2023-04-05T11:02:55;101697.44;;;14.49;32.39
55010;BME280;40903;51.638;7.528;2023-04-05T11:05:27;101698.69;;;14.61;33.41
55010;BME280;40903;51.638;7.528;2023-04-05T11:07:52;101695.19;;;14.56;32.05
55010;BME280;40903;51.638;7.528;2023-04-05T11:10:20;101701.88;;;14.50;30.99
55010;BME280;40903;51.638;7.528;2023-04-05T11:15:27;101689.22;;;14.25;31.35
55010;BME280;40903;51.638;7.528;2023-04-05T11:18:19;101683.38;;;14.32;34.30
55010;BME280;40903;51.638;7.528;2023-04-05T11:23:11;101682.00;;;14.34;31.21
55010;BME280;40903;51.638;7.528;2023-04-05T11:25:37;101678.59;;;14.19;33.62
55010;BME280;40903;51.638;7.528;2023-04-05T11:28:04;101682.81;;;14.35;31.83
55010;BME280;40903;51.638;7.528;2023-04-05T11:30:45;101686.53;;;14.20;28.78
55010;BME280;40903;51.638;7.528;2023-04-05T11:33:10;101680.97;;;14.49;31.78
55010;BME280;40903;51.638;7.528;2023-04-05T11:35:38;101673.97;;;14.61;31.49
55010;BME280;40903;51.638;7.528;2023-04-05T11:43:27;101675.13;;;14.55;29.29
55010;BME280;40903;51.638;7.528;2023-04-05T11:45:45;101672.13;;;14.57;32.40
55010;BME280;40903;51.638;7.528;2023-04-05T11:48:12;101661.97;;;14.76;32.03
55010;BME280;40903;51.638;7.528;2023-04-05T11:50:38;101661.84;;;14.86;30.38
55010;BME280;40903;51.638;7.528;2023-04-05T11:53:12;101648.03;;;14.91;31.87
55010;BME280;40903;51.638;7.528;2023-04-05T11:55:38;101657.47;;;14.85;30.58
55010;BME280;40903;51.638;7.528;2023-04-05T11:58:14;101659.50;;;14.98;29.43
55010;BME280;40903;51.638;7.528;2023-04-05T12:00:40;101648.78;;;15.15;32.42
55010;BME280;40903;51.638;7.528;2023-04-05T12:03:05;101652.44;;;15.10;30.40
55010;BME280;40903;51.638;7.528;2023-04-05T12:08:15;101646.69;;;15.07;31.18
55010;BME280;40903;51.638;7.528;2023-04-05T12:10:40;101647.22;;;15.09;30.39
55010;BME280;40903;51.638;7.528;2023-04-05T12:13:05;101644.56;;;15.04;30.83
55010;BME280;40903;51.638;7.528;2023-04-05T12:15:31;101643.38;;;14.91;30.25
55010;BME280;40903;51.638;7.528;2023-04-05T12:18:00;101634.81;;;14.93;32.12
55010;BME280;40903;51.638;7.528;2023-04-05T12:20:25;101632.06;;;14.93;30.33
55010;BME280;40903;51.638;7.528;2023-04-05T12:22:51;101629.47;;;15.01;30.35
55010;BME280;40903;51.638;7.528;2023-04-05T12:25:17;101621.69;;;15.08;31.65
55010;BME280;40903;51.638;7.528;2023-04-05T12:27:43;101624.28;;;15.00;29.92
55010;BME280;40903;51.638;7.528;2023-04-05T12:32:40;101624.06;;;15.15;31.30
55010;BME280;40903;51.638;7.528;2023-04-05T12:35:15;101629.09;;;15.08;27.59
55010;BME280;40903;51.638;7.528;2023-04-05T12:37:41;101622.84;;;15.21;29.52
55010;BME280;40903;51.638;7.528;2023-04-05T12:40:07;101626.34;;;15.26;28.37
55010;BME280;40903;51.638;7.528;2023-04-05T12:42:33;101622.44;;;15.32;28.04
55010;BME280;40903;51.638;7.528;2023-04-05T12:45:02;101629.25;;;15.35;28.57
55010;BME280;40903;51.638;7.528;2023-04-05T12:47:28;101618.75;;;15.55;29.09
55010;BME280;40903;51.638;7.528;2023-04-05T12:49:54;101609.09;;;15.58;28.59
55010;BME280;40903;51.638;7.528;2023-04-05T12:52:19;101611.66;;;15.36;27.76
55010;BME280;40903;51.638;7.528;2023-04-05T12:54:53;101608.00;;;15.22;28.74
55010;BME280;40903;51.638;7.528;2023-04-05T12:57:27;101605.47;;;15.25;30.68
55010;BME280;40903;51.638;7.528;2023-04-05T12:59:55;101613.72;;;15.25;28.44
55010;BME280;40903;51.638;7.528;2023-04-05T13:02:20;101607.94;;;15.27;27.65
55010;BME280;40903;51.638;7.528;2023-04-05T13:04:45;101617.09;;;15.41;27.98
55010;BME280;40903;51.638;7.528;2023-04-05T13:07:10;101607.53;;;15.52;28.59
55010;BME280;40903;51.638;7.528;2023-04-05T13:09:36;101605.22;;;15.59;27.30
55010;BME280;40903;51.638;7.528;2023-04-05T13:12:01;101601.97;;;15.57;27.00
55010;BME280;40903;51.638;7.528;2023-04-05T13:14:26;101607.25;;;15.53;25.57
55010;BME280;40903;51.638;7.528;2023-04-05T13:16:51;101601.09;;;15.43;27.11
55010;BME280;40903;51.638;7.528;2023-04-05T13:19:17;101592.09;;;15.56;27.30
55010;BME280;40903;51.638;7.528;2023-04-05T13:21:42;101592.78;;;15.61;27.70
55010;BME280;40903;51.638;7.528;2023-04-05T13:24:08;101592.28;;;15.59;26.67
55010;BME280;40903;51.638;7.528;2023-04-05T13:26:33;101581.38;;;15.68;28.24